Time;durP1;ratioP1;P1;durP2;ratioP2;P2;SDS_P1;SDS_P2;PMS_P1;PMS_P2;Temp;Humidity;BMP_temperature;BMP_pressure;BME280_temperature;BME280_humidity;BME280_pressure;Samples;Min_cycle;Max_cycle;Signal;HPM_P1;HPM_P2
2021/04/03 00:02:17;;;;;;;2.55;1.13;;;;;;;;;;5088583;28;20168;-75
2021/04/03 00:04:43;;;;;;;1.35;1.17;;;;;;;;;;5076603;28;20180;-75
2021/04/03 00:07:09;;;;;;;0.93;0.82;;;;;;;;;;5069811;28;20185;-75
2021/04/03 00:09:35;;;;;;;3.75;2.72;;;;;;;;;;5052030;28;20188;-75
2021/04/03 00:12:01;;;;;;;1.45;1.35;;;;;;;;;;5069894;28;20184;-75
2021/04/03 00:14:28;;;;;;;0.22;0.22;;;;;;;;;;5069865;28;20172;-75
2021/04/03 00:16:54;;;;;;;0.55;0.55;;;;;;;;;;5069560;28;20224;-75
2021/04/03 00:19:20;;;;;;;0.28;0.28;;;;;;;;;;5051718;28;20211;-74
2021/04/03 00:21:47;;;;;;;1.25;1.15;;;;;;;;;;5069571;28;20214;-74
2021/04/03 00:24:13;;;;;;;0.70;0.70;;;;;;;;;;5069648;28;20607;-75
2021/04/03 00:26:40;;;;;;;1.00;0.68;;;;;;;;;;5069525;28;20184;-74
2021/04/03 00:29:06;;;;;;;0.55;0.55;;;;;;;;;;5069508;28;20176;-74
2021/04/03 00:31:32;;;;;;;0.52;0.52;;;;;;;;;;5069447;28;20228;-74
2021/04/03 00:33:58;;;;;;;0.60;0.60;;;;;;;;;;5069419;28;20168;-74
2021/04/03 00:36:25;;;;;;;0.90;0.90;;;;;;;;;;5051450;28;20200;-74
2021/04/03 00:38:51;;;;;;;1.20;1.20;;;;;;;;;;5069340;28;20195;-74
2021/04/03 00:41:17;;;;;;;1.15;1.15;;;;;;;;;;5069379;28;20212;-74
2021/04/03 00:43:43;;;;;;;1.17;1.17;;;;;;;;;;5069319;28;20161;-75
2021/04/03 00:46:10;;;;;;;16.08;1.10;;;;;;;;;;5069259;28;20165;-75
2021/04/03 00:48:36;;;;;;;0.32;0.32;;;;;;;;;;5069262;28;20189;-75
2021/04/03 00:51:03;;;;;;;1.42;1.40;;;;;;;;;;5068879;28;20248;-71
2021/04/03 00:53:30;;;;;;;4.50;1.05;;;;;;;;;;5069222;28;20164;-70
2021/04/03 00:55:56;;;;;;;1.33;0.68;;;;;;;;;;5069171;28;20164;-71
2021/04/03 00:58:23;;;;;;;1.60;1.50;;;;;;;;;;5069057;28;20196;-70
2021/04/03 01:00:49;;;;;;;0.85;0.85;;;;;;;;;;5075989;28;20192;-69
2021/04/03 01:03:16;;;;;;;0.17;0.17;;;;;;;;;;5088300;28;20164;-69
2021/04/03 01:05:42;;;;;;;2.47;2.25;;;;;;;;;;5069089;28;20165;-69
2021/04/03 01:08:10;;;;;;;1.77;1.67;;;;;;;;;;5068988;28;20670;-69
2021/04/03 01:10:42;;;;;;;1.23;1.23;;;;;;;;;;5068926;28;20196;-70
2021/04/03 01:13:14;;;;;;;1.05;1.02;;;;;;;;;;5069032;28;20161;-70
2021/04/03 01:15:44;;;;;;;1.10;1.05;;;;;;;;;;5072334;28;20173;-69
2021/04/03 01:18:16;;;;;;;1.42;0.90;;;;;;;;;;5073040;28;20207;-70
2021/04/03 01:20:54;;;;;;;2.28;2.08;;;;;;;;;;5054970;28;20196;-69
2021/04/03 01:23:39;;;;;;;1.65;1.55;;;;;;;;;;5055123;28;20203;-70
2021/04/03 01:26:08;;;;;;;1.92;1.83;;;;;;;;;;5072822;28;20218;-69
2021/04/03 01:28:44;;;;;;;1.30;1.30;;;;;;;;;;5072898;28;20192;-70
2021/04/03 01:31:11;;;;;;;0.93;0.93;;;;;;;;;;5072843;28;20180;-69
2021/04/03 01:33:40;;;;;;;1.55;0.77;;;;;;;;;;5072855;28;20164;-70
2021/04/03 01:36:17;;;;;;;1.35;1.27;;;;;;;;;;5072824;28;20189;-70
2021/04/03 01:39:04;;;;;;;0.77;0.70;;;;;;;;;;5054696;28;20196;-70
2021/04/03 01:41:31;;;;;;;0.75;0.60;;;;;;;;;;5072439;28;20215;-70
2021/04/03 01:43:58;;;;;;;0.68;0.52;;;;;;;;;;5072539;28;20165;-69
2021/04/03 01:46:26;;;;;;;2.95;2.67;;;;;;;;;;5054637;28;20173;-69
2021/04/03 01:48:53;;;;;;;1.45;1.35;;;;;;;;;;5054596;28;20173;-69
2021/04/03 01:51:20;;;;;;;1.83;1.00;;;;;;;;;;5072312;28;20230;-70
2021/04/03 01:53:47;;;;;;;0.60;0.60;;;;;;;;;;5072429;28;20193;-69
2021/04/03 01:56:16;;;;;;;0.45;0.45;;;;;;;;;;5054518;28;20206;-69
2021/04/03 01:58:42;;;;;;;0.60;0.60;;;;;;;;;;5072327;28;20209;-69
2021/04/03 02:01:12;;;;;;;0.70;0.70;;;;;;;;;;5081752;28;20240;-69
2021/04/03 02:03:38;;;;;;;1.13;1.02;;;;;;;;;;5092161;28;20180;-69
2021/04/03 02:06:05;;;;;;;2.33;1.20;;;;;;;;;;5092260;28;20156;-68
2021/04/03 02:08:32;;;;;;;0.22;0.22;;;;;;;;;;5092120;28;20203;-69
2021/04/03 02:11:01;;;;;;;1.48;1.38;;;;;;;;;;5074178;28;20184;-70
2021/04/03 02:13:29;;;;;;;0.30;0.30;;;;;;;;;;5074142;28;20201;-69
2021/04/03 02:15:56;;;;;;;0.68;0.68;;;;;;;;;;5074216;28;20176;-70
2021/04/03 02:18:23;;;;;;;2.13;1.63;;;;;;;;;;5092060;28;20254;-69
2021/04/03 02:20:49;;;;;;;1.88;1.77;;;;;;;;;;5091859;28;20199;-69
2021/04/03 02:23:15;;;;;;;0.52;0.52;;;;;;;;;;5091968;28;20164;-69
2021/04/03 02:25:42;;;;;;;1.23;1.23;;;;;;;;;;5090937;28;20184;-69
2021/04/03 02:28:08;;;;;;;0.47;0.47;;;;;;;;;;5073770;28;20736;-70
2021/04/03 02:30:34;;;;;;;0.85;0.85;;;;;;;;;;5073962;28;20237;-70
2021/04/03 02:33:00;;;;;;;4.05;3.10;;;;;;;;;;5091780;28;20164;-69
2021/04/03 02:35:29;;;;;;;3.03;1.25;;;;;;;;;;5091654;28;20168;-69
2021/04/03 02:37:59;;;;;;;0.55;0.55;;;;;;;;;;5073495;28;20226;-69
2021/04/03 02:40:28;;;;;;;0.20;0.20;;;;;;;;;;5091428;28;20725;-70
2021/04/03 02:43:15;;;;;;;0.10;0.10;;;;;;;;;;5073594;28;20182;-70
2021/04/03 02:45:48;;;;;;;0.70;0.70;;;;;;;;;;5091398;28;20172;-69
2021/04/03 02:48:17;;;;;;;1.15;1.10;;;;;;;;;;5091414;28;20195;-69
2021/04/03 02:50:45;;;;;;;0.32;0.32;;;;;;;;;;5091224;28;20215;-69
2021/04/03 02:53:12;;;;;;;2.38;0.85;;;;;;;;;;5091303;28;20251;-70
2021/04/03 02:55:41;;;;;;;1.80;1.75;;;;;;;;;;5091108;28;20164;-70
2021/04/03 02:58:08;;;;;;;0.22;0.22;;;;;;;;;;5091199;28;20202;-70
2021/04/03 03:00:35;;;;;;;0.95;0.93;;;;;;;;;;5091074;28;20187;-70
2021/04/03 03:03:02;;;;;;;0.50;0.50;;;;;;;;;;5073357;28;20160;-70
2021/04/03 03:05:28;;;;;;;0.43;0.43;;;;;;;;;;5090995;28;20176;-71
2021/04/03 03:07:55;;;;;;;0.50;0.50;;;;;;;;;;5072875;28;20199;-71
2021/04/03 03:10:21;;;;;;;0.77;0.77;;;;;;;;;;5091200;28;20194;-70
2021/04/03 03:12:51;;;;;;;0.32;0.32;;;;;;;;;;5072942;28;20263;-71
2021/04/03 03:15:19;;;;;;;0.40;0.40;;;;;;;;;;5091051;28;20164;-70
2021/04/03 03:17:46;;;;;;;0.32;0.32;;;;;;;;;;5090819;28;20286;-70
2021/04/03 03:20:13;;;;;;;0.38;0.38;;;;;;;;;;5090789;28;20188;-70
2021/04/03 03:22:40;;;;;;;2.10;2.00;;;;;;;;;;5072821;28;20179;-70
2021/04/03 03:25:07;;;;;;;0.20;0.20;;;;;;;;;;5090665;28;20160;-69
2021/04/03 03:27:38;;;;;;;0.95;0.95;;;;;;;;;;5090508;28;20247;-70
2021/04/03 03:30:05;;;;;;;0.45;0.45;;;;;;;;;;5072599;28;20171;-70
2021/04/03 03:32:31;;;;;;;2.13;1.45;;;;;;;;;;5090623;28;20164;-70
2021/04/03 03:34:58;;;;;;;1.55;1.45;;;;;;;;;;5090500;28;20191;-70
2021/04/03 03:37:25;;;;;;;2.50;1.65;;;;;;;;;;5072549;28;20239;-70
2021/04/03 03:39:52;;;;;;;0.65;0.65;;;;;;;;;;5090370;28;20184;-70
2021/04/03 03:42:18;;;;;;;1.20;1.13;;;;;;;;;;5072492;28;20266;-70
2021/04/03 03:44:45;;;;;;;0.47;0.47;;;;;;;;;;5090334;28;20152;-70
2021/04/03 03:47:11;;;;;;;3.45;2.63;;;;;;;;;;5090147;28;20259;-71
2021/04/03 03:49:38;;;;;;;0.32;0.32;;;;;;;;;;5072301;28;20228;-70
2021/04/03 03:52:05;;;;;;;3.05;0.63;;;;;;;;;;5090185;28;20176;-70
2021/04/03 03:54:31;;;;;;;0.70;0.70;;;;;;;;;;5090290;28;20247;-70
2021/04/03 03:56:57;;;;;;;0.85;0.85;;;;;;;;;;5090116;28;20191;-69
2021/04/03 03:59:23;;;;;;;0.75;0.75;;;;;;;;;;5090302;28;20160;-70
2021/04/03 04:01:49;;;;;;;0.52;0.52;;;;;;;;;;5090021;28;20192;-69
2021/04/03 04:04:15;;;;;;;0.75;0.63;;;;;;;;;;5072050;28;20172;-70
2021/04/03 04:06:41;;;;;;;0.10;0.10;;;;;;;;;;5089678;28;20218;-70
2021/04/03 04:09:08;;;;;;;1.33;1.30;;;;;;;;;;5089937;28;20164;-71
2021/04/03 04:11:34;;;;;;;1.02;1.02;;;;;;;;;;5089856;28;20226;-70
2021/04/03 04:14:00;;;;;;;0.30;0.30;;;;;;;;;;5072064;28;20182;-71
2021/04/03 04:16:26;;;;;;;0.75;0.75;;;;;;;;;;5071918;28;20223;-70
2021/04/03 04:18:52;;;;;;;2.35;2.15;;;;;;;;;;5071815;28;20186;-70
2021/04/03 04:21:19;;;;;;;0.80;0.68;;;;;;;;;;5071744;28;20579;-70
2021/04/03 04:23:46;;;;;;;0.95;0.75;;;;;;;;;;5071759;28;20542;-70
2021/04/03 04:26:12;;;;;;;4.13;1.95;;;;;;;;;;5089519;28;20191;-69
2021/04/03 04:28:38;;;;;;;3.67;0.82;;;;;;;;;;5071569;28;20168;-70
2021/04/03 04:31:05;;;;;;;0.70;0.70;;;;;;;;;;5089501;28;20164;-70
2021/04/03 04:33:32;;;;;;;2.10;0.88;;;;;;;;;;5071531;28;20254;-70
2021/04/03 04:35:58;;;;;;;0.20;0.20;;;;;;;;;;5071352;28;20222;-69
2021/04/03 04:38:24;;;;;;;2.28;2.17;;;;;;;;;;5089589;28;20156;-70
2021/04/03 04:40:50;;;;;;;0.10;0.10;;;;;;;;;;5089333;28;20695;-70
2021/04/03 04:43:20;;;;;;;1.98;1.45;;;;;;;;;;5089399;28;20160;-69
2021/04/03 04:45:46;;;;;;;0.95;0.93;;;;;;;;;;5089329;28;20192;-70
2021/04/03 04:48:13;;;;;;;0.35;0.30;;;;;;;;;;5071365;28;20168;-69
2021/04/03 04:50:39;;;;;;;2.05;1.70;;;;;;;;;;5088558;28;20228;-69
2021/04/03 04:53:08;;;;;;;0.73;0.73;;;;;;;;;;5089491;28;20195;-70
2021/04/03 04:55:34;;;;;;;1.67;1.55;;;;;;;;;;5089336;28;20222;-69
2021/04/03 04:58:01;;;;;;;0.95;0.95;;;;;;;;;;5089154;28;20188;-70
2021/04/03 05:00:27;;;;;;;0.38;0.38;;;;;;;;;;5071147;28;20215;-70
2021/04/03 05:02:53;;;;;;;0.20;0.20;;;;;;;;;;5071232;28;20180;-70
2021/04/03 05:05:20;;;;;;;0.70;0.70;;;;;;;;;;5070957;28;20198;-70
2021/04/03 05:07:46;;;;;;;0.98;0.93;;;;;;;;;;5089218;28;20160;-69
2021/04/03 05:10:13;;;;;;;1.20;1.20;;;;;;;;;;5089102;28;20243;-70
2021/04/03 05:12:39;;;;;;;0.85;0.85;;;;;;;;;;5088885;28;20160;-70
2021/04/03 05:15:07;;;;;;;1.38;1.33;;;;;;;;;;5089118;28;20156;-70
2021/04/03 05:17:33;;;;;;;0.40;0.40;;;;;;;;;;5089101;28;20156;-70
2021/04/03 05:19:59;;;;;;;0.85;0.68;;;;;;;;;;5088874;28;20172;-70
2021/04/03 05:22:26;;;;;;;1.73;1.15;;;;;;;;;;5071070;28;20168;-70
2021/04/03 05:24:52;;;;;;;1.23;1.20;;;;;;;;;;5088954;28;20160;-69
2021/04/03 05:27:18;;;;;;;1.77;1.30;;;;;;;;;;5071014;28;20202;-70
2021/04/03 05:29:44;;;;;;;1.17;1.08;;;;;;;;;;5088955;28;20223;-70
2021/04/03 05:32:11;;;;;;;1.42;1.42;;;;;;;;;;5088966;28;20168;-70
2021/04/03 05:34:37;;;;;;;1.23;0.52;;;;;;;;;;5070675;28;20236;-70
2021/04/03 05:37:03;;;;;;;0.40;0.40;;;;;;;;;;5070666;28;20203;-70
2021/04/03 05:39:29;;;;;;;0.52;0.52;;;;;;;;;;5070904;28;20172;-69
2021/04/03 05:41:57;;;;;;;3.75;1.30;;;;;;;;;;5088879;28;20262;-70
2021/04/03 05:44:24;;;;;;;0.88;0.88;;;;;;;;;;5088368;28;20171;-70
2021/04/03 05:46:51;;;;;;;3.65;1.13;;;;;;;;;;5070480;28;20204;-70
2021/04/03 05:49:20;;;;;;;1.50;1.40;;;;;;;;;;5088604;28;20212;-69
2021/04/03 05:51:47;;;;;;;0.80;0.68;;;;;;;;;;5070688;28;20171;-70
2021/04/03 05:54:13;;;;;;;0.93;0.93;;;;;;;;;;5088781;28;20640;-70
2021/04/03 05:56:40;;;;;;;5.35;1.67;;;;;;;;;;5088521;28;20188;-70
2021/04/03 05:59:06;;;;;;;1.77;1.67;;;;;;;;;;5070549;28;20190;-70
2021/04/03 06:01:34;;;;;;;1.75;1.27;;;;;;;;;;5089753;28;20199;-70
2021/04/03 06:04:01;;;;;;;0.85;0.85;;;;;;;;;;5092248;28;20651;-70
2021/04/03 06:06:27;;;;;;;1.23;1.23;;;;;;;;;;5074200;28;20196;-70
2021/04/03 06:08:53;;;;;;;1.58;1.48;;;;;;;;;;5092211;28;20156;-70
2021/04/03 06:11:23;;;;;;;1.23;0.98;;;;;;;;;;5092107;28;20239;-70
2021/04/03 06:13:56;;;;;;;0.45;0.45;;;;;;;;;;5073969;28;20167;-70
2021/04/03 06:16:27;;;;;;;0.88;0.88;;;;;;;;;;5091886;28;20221;-70
2021/04/03 06:19:13;;;;;;;1.33;1.02;;;;;;;;;;5078829;28;20173;-70
2021/04/03 06:21:44;;;;;;;0.75;0.75;;;;;;;;;;5071233;28;20211;-70
2021/04/03 06:24:16;;;;;;;2.83;0.98;;;;;;;;;;5071582;28;20200;-69
2021/04/03 06:26:51;;;;;;;1.90;1.80;;;;;;;;;;5071583;28;20185;-70
2021/04/03 06:29:21;;;;;;;2.95;2.67;;;;;;;;;;5071576;28;20196;-70
2021/04/03 06:31:52;;;;;;;2.60;2.05;;;;;;;;;;5071503;28;20161;-69
2021/04/03 06:34:28;;;;;;;4.97;3.60;;;;;;;;;;5071607;28;20240;-71
2021/04/03 06:36:54;;;;;;;2.72;1.80;;;;;;;;;;5053370;28;20560;-70
2021/04/03 06:39:21;;;;;;;1.13;0.95;;;;;;;;;;5053456;28;20173;-69
2021/04/03 06:41:47;;;;;;;0.47;0.47;;;;;;;;;;5071328;28;20295;-69
2021/04/03 06:44:14;;;;;;;0.30;0.30;;;;;;;;;;5051290;28;20584;-70
2021/04/03 06:46:42;;;;;;;1.70;1.60;;;;;;;;;;5052167;28;20173;-69
2021/04/03 06:49:08;;;;;;;6.93;1.35;;;;;;;;;;5053067;28;20169;-69
2021/04/03 06:51:35;;;;;;;1.00;0.93;;;;;;;;;;5071022;28;20195;-69
2021/04/03 06:54:02;;;;;;;2.38;2.25;;;;;;;;;;5070793;28;20255;-70
2021/04/03 06:56:31;;;;;;;0.75;0.75;;;;;;;;;;5071034;28;20173;-69
2021/04/03 06:59:01;;;;;;;0.63;0.63;;;;;;;;;;5070659;28;20200;-70
2021/04/03 07:01:30;;;;;;;0.68;0.68;;;;;;;;;;5070879;28;20188;-70
2021/04/03 07:03:57;;;;;;;1.20;1.20;;;;;;;;;;5053033;28;20196;-70
2021/04/03 07:06:24;;;;;;;0.90;0.90;;;;;;;;;;5071017;28;20180;-69
2021/04/03 07:08:51;;;;;;;0.80;0.80;;;;;;;;;;5071065;28;20161;-70
2021/04/03 07:11:18;;;;;;;1.10;1.08;;;;;;;;;;5052911;28;20537;-70
2021/04/03 07:13:45;;;;;;;1.10;1.08;;;;;;;;;;5069457;28;20260;-70
2021/04/03 07:16:11;;;;;;;0.22;0.22;;;;;;;;;;5064305;28;20173;-70
2021/04/03 07:18:41;;;;;;;2.67;1.67;;;;;;;;;;5065256;28;20223;-69
2021/04/03 07:21:08;;;;;;;0.80;0.80;;;;;;;;;;5050724;28;20610;-71
2021/04/03 07:23:38;;;;;;;0.50;0.50;;;;;;;;;;5061436;28;20255;-70
2021/04/03 07:26:05;;;;;;;0.25;0.20;;;;;;;;;;5070626;28;20153;-70
2021/04/03 07:28:38;;;;;;;0.63;0.63;;;;;;;;;;5052667;28;20165;-70
2021/04/03 07:31:05;;;;;;;2.63;1.13;;;;;;;;;;5050489;28;20168;-72
2021/04/03 07:33:32;;;;;;;0.90;0.90;;;;;;;;;;5032513;28;20198;-71
2021/04/03 07:36:00;;;;;;;1.17;0.80;;;;;;;;;;5050465;28;20165;-74
2021/04/03 07:38:35;;;;;;;4.03;2.42;;;;;;;;;;5050233;28;20513;-73
2021/04/03 07:41:02;;;;;;;1.08;1.08;;;;;;;;;;5049765;28;20196;-75
2021/04/03 07:43:42;;;;;;;1.08;1.02;;;;;;;;;;5031636;28;20201;-75
2021/04/03 07:46:14;;;;;;;0.95;0.90;;;;;;;;;;5032094;28;20169;-74
2021/04/03 07:48:40;;;;;;;1.83;1.52;;;;;;;;;;5040253;28;20170;-72
2021/04/03 07:51:07;;;;;;;0.88;0.88;;;;;;;;;;5033127;28;20228;-70
2021/04/03 07:53:53;;;;;;;1.55;1.45;;;;;;;;;;5049282;28;20193;-71
2021/04/03 07:56:21;;;;;;;0.88;0.77;;;;;;;;;;5032104;28;20185;-70
2021/04/03 07:58:48;;;;;;;2.97;1.60;;;;;;;;;;5048609;28;20231;-70
2021/04/03 08:01:15;;;;;;;1.98;1.88;;;;;;;;;;5049568;28;20197;-71
2021/04/03 08:03:41;;;;;;;1.45;1.10;;;;;;;;;;5049629;28;20204;-71
2021/04/03 08:06:10;;;;;;;1.05;1.05;;;;;;;;;;5049438;28;20239;-70
2021/04/03 08:08:40;;;;;;;0.98;0.75;;;;;;;;;;5049553;28;20162;-72
2021/04/03 08:11:06;;;;;;;0.10;0.10;;;;;;;;;;5049641;28;20157;-70
2021/04/03 08:13:33;;;;;;;0.95;0.95;;;;;;;;;;5049399;28;20197;-71
2021/04/03 08:16:02;;;;;;;1.75;0.93;;;;;;;;;;5087303;28;20183;-72
2021/04/03 08:18:29;;;;;;;0.85;0.63;;;;;;;;;;5089584;28;20165;-69
2021/04/03 08:20:56;;;;;;;0.30;0.30;;;;;;;;;;5089458;28;20218;-70
2021/04/03 08:23:33;;;;;;;0.10;0.10;;;;;;;;;;5070687;28;20179;-69
2021/04/03 08:25:59;;;;;;;0.10;0.10;;;;;;;;;;5089270;28;20164;-70
2021/04/03 08:28:26;;;;;;;0.65;0.38;;;;;;;;;;5071369;28;20251;-70
2021/04/03 08:30:52;;;;;;;0.00;0.00;;;;;;;;;;5052215;28;20173;-71
2021/04/03 08:33:19;;;;;;;0.25;0.25;;;;;;;;;;5045452;28;20204;-71
2021/04/03 08:35:47;;;;;;;0.05;0.05;;;;;;;;;;5068894;28;20168;-70
2021/04/03 08:38:15;;;;;;;0.15;0.15;;;;;;;;;;5065965;28;20176;-70
2021/04/03 08:40:41;;;;;;;0.38;0.38;;;;;;;;;;5058442;28;20204;-70
2021/04/03 08:43:08;;;;;;;0.60;0.55;;;;;;;;;;5057297;28;20296;-69
2021/04/03 08:45:38;;;;;;;0.40;0.40;;;;;;;;;;5046411;28;20184;-70
2021/04/03 08:48:07;;;;;;;0.00;0.00;;;;;;;;;;5050161;28;20169;-70
2021/04/03 08:50:33;;;;;;;0.28;0.28;;;;;;;;;;5088661;28;20246;-71
2021/04/03 08:53:01;;;;;;;0.00;0.00;;;;;;;;;;5070941;28;20210;-72
2021/04/03 08:55:28;;;;;;;0.10;0.10;;;;;;;;;;5070755;28;20236;-72
2021/04/03 08:57:55;;;;;;;0.70;0.70;;;;;;;;;;5088642;28;20160;-72
2021/04/03 09:00:22;;;;;;;0.20;0.20;;;;;;;;;;5088613;28;20196;-72
2021/04/03 09:02:49;;;;;;;0.00;0.00;;;;;;;;;;5068912;28;20211;-72
2021/04/03 09:05:16;;;;;;;0.00;0.00;;;;;;;;;;5062727;28;20623;-71
2021/04/03 09:07:42;;;;;;;0.10;0.10;;;;;;;;;;5068795;28;20188;-70
2021/04/03 09:10:10;;;;;;;0.00;0.00;;;;;;;;;;5068640;28;20161;-70
2021/04/03 09:12:36;;;;;;;0.50;0.50;;;;;;;;;;5050924;28;20161;-70
2021/04/03 09:15:03;;;;;;;0.00;0.00;;;;;;;;;;5060783;28;20199;-70
2021/04/03 09:17:29;;;;;;;0.00;0.00;;;;;;;;;;5071116;28;20254;-71
2021/04/03 09:20:06;;;;;;;0.17;0.17;;;;;;;;;;5088850;28;20157;-72
2021/04/03 09:22:36;;;;;;;0.10;0.10;;;;;;;;;;5084372;28;20195;-72
2021/04/03 09:25:07;;;;;;;0.75;0.40;;;;;;;;;;5050646;28;20193;-72
2021/04/03 09:27:33;;;;;;;0.10;0.10;;;;;;;;;;5068765;28;20157;-72
2021/04/03 09:30:07;;;;;;;0.00;0.00;;;;;;;;;;5068722;28;20187;-72
2021/04/03 09:32:46;;;;;;;0.10;0.10;;;;;;;;;;5057967;28;20173;-70
2021/04/03 09:35:14;;;;;;;0.38;0.38;;;;;;;;;;5031563;28;20292;-69
2021/04/03 09:37:41;;;;;;;0.40;0.40;;;;;;;;;;5034762;28;20183;-71
2021/04/03 09:40:08;;;;;;;0.47;0.20;;;;;;;;;;5034781;28;20242;-70
2021/04/03 09:42:35;;;;;;;0.28;0.28;;;;;;;;;;5052420;28;20177;-69
2021/04/03 09:45:05;;;;;;;0.03;0.03;;;;;;;;;;5052408;28;20196;-70
2021/04/03 09:47:31;;;;;;;0.52;0.52;;;;;;;;;;5052660;28;20169;-69
2021/04/03 09:49:57;;;;;;;0.10;0.10;;;;;;;;;;5026253;28;20695;-69
2021/04/03 09:52:26;;;;;;;0.08;0.08;;;;;;;;;;5032016;28;20177;-69
2021/04/03 09:54:52;;;;;;;0.15;0.15;;;;;;;;;;5032285;28;20208;-69
2021/04/03 09:57:20;;;;;;;0.25;0.25;;;;;;;;;;5017271;28;20228;-73
2021/04/03 09:59:46;;;;;;;0.00;0.00;;;;;;;;;;5032244;28;20189;-72
2021/04/03 10:02:12;;;;;;;0.00;0.00;;;;;;;;;;5031855;28;20247;-70
2021/04/03 10:04:39;;;;;;;0.30;0.10;;;;;;;;;;5014526;28;20166;-69
2021/04/03 10:07:05;;;;;;;0.10;0.10;;;;;;;;;;5048306;28;20260;-70
2021/04/03 10:09:32;;;;;;;0.43;0.40;;;;;;;;;;5051807;28;20166;-69
2021/04/03 10:11:58;;;;;;;0.10;0.10;;;;;;;;;;5051554;28;20188;-70
2021/04/03 10:14:25;;;;;;;0.20;0.20;;;;;;;;;;5056853;28;20173;-70
2021/04/03 10:16:51;;;;;;;0.10;0.10;;;;;;;;;;5053934;28;20203;-70
2021/04/03 10:19:18;;;;;;;0.00;0.00;;;;;;;;;;5053827;28;20168;-70
2021/04/03 10:21:44;;;;;;;0.00;0.00;;;;;;;;;;5071656;28;20188;-69
2021/04/03 10:24:11;;;;;;;0.20;0.20;;;;;;;;;;5071577;28;20176;-69
2021/04/03 10:26:37;;;;;;;0.35;0.35;;;;;;;;;;5071642;28;20189;-69
2021/04/03 10:29:04;;;;;;;0.10;0.10;;;;;;;;;;5071710;28;20215;-70
2021/04/03 10:31:30;;;;;;;0.10;0.10;;;;;;;;;;5071511;28;20232;-70
2021/04/03 10:33:56;;;;;;;0.05;0.05;;;;;;;;;;5071104;28;20184;-70
2021/04/03 10:36:22;;;;;;;0.10;0.10;;;;;;;;;;5053320;28;20689;-69
2021/04/03 10:38:48;;;;;;;0.00;0.00;;;;;;;;;;5053323;28;20160;-69
2021/04/03 10:41:16;;;;;;;1.00;0.47;;;;;;;;;;5071304;28;20192;-69
2021/04/03 10:43:42;;;;;;;0.00;0.00;;;;;;;;;;5053420;28;20156;-69
2021/04/03 10:46:09;;;;;;;0.25;0.25;;;;;;;;;;5071143;28;20180;-69
2021/04/03 10:48:35;;;;;;;0.10;0.10;;;;;;;;;;5053402;28;20173;-70
2021/04/03 10:51:03;;;;;;;0.00;0.00;;;;;;;;;;5013415;28;20225;-70
2021/04/03 10:53:29;;;;;;;0.20;0.20;;;;;;;;;;5031511;28;20264;-70
2021/04/03 10:55:55;;;;;;;0.55;0.55;;;;;;;;;;5031227;28;20204;-70
2021/04/03 10:58:22;;;;;;;0.10;0.10;;;;;;;;;;5031022;28;20189;-70
2021/04/03 11:00:48;;;;;;;0.03;0.03;;;;;;;;;;5031206;28;20674;-67
2021/04/03 11:03:14;;;;;;;0.20;0.20;;;;;;;;;;5013692;28;20223;-66
2021/04/03 11:05:40;;;;;;;0.32;0.32;;;;;;;;;;5022627;28;20193;-69
2021/04/03 11:08:06;;;;;;;0.10;0.10;;;;;;;;;;5033073;28;20166;-71
2021/04/03 11:10:33;;;;;;;1.13;1.02;;;;;;;;;;5050851;28;20649;-70
2021/04/03 11:12:59;;;;;;;0.00;0.00;;;;;;;;;;5050813;28;20169;-70
2021/04/03 11:15:25;;;;;;;0.00;0.00;;;;;;;;;;5052667;28;20195;-70
2021/04/03 11:17:52;;;;;;;0.10;0.10;;;;;;;;;;5070777;28;20187;-74
2021/04/03 11:20:19;;;;;;;0.47;0.47;;;;;;;;;;5057361;28;20264;-74
2021/04/03 11:22:45;;;;;;;0.10;0.10;;;;;;;;;;5038743;28;20168;-75
2021/04/03 11:25:11;;;;;;;0.25;0.25;;;;;;;;;;5070438;28;20532;-75
2021/04/03 11:27:37;;;;;;;0.32;0.13;;;;;;;;;;5070380;28;20629;-75
2021/04/03 11:30:14;;;;;;;0.10;0.10;;;;;;;;;;5070362;28;20161;-74
2021/04/03 11:32:41;;;;;;;0.13;0.13;;;;;;;;;;5052443;28;20677;-75
2021/04/03 11:35:07;;;;;;;0.03;0.03;;;;;;;;;;5070281;28;20260;-75
2021/04/03 11:37:34;;;;;;;0.00;0.00;;;;;;;;;;5052118;28;20179;-75
2021/04/03 11:40:00;;;;;;;0.08;0.08;;;;;;;;;;5052064;28;20177;-74
2021/04/03 11:42:27;;;;;;;0.32;0.32;;;;;;;;;;5070188;28;20199;-75
2021/04/03 11:44:53;;;;;;;0.10;0.10;;;;;;;;;;5069821;28;20303;-76
2021/04/03 11:47:20;;;;;;;0.05;0.05;;;;;;;;;;5052043;28;20176;-75
2021/04/03 11:49:46;;;;;;;0.15;0.15;;;;;;;;;;5055383;28;20215;-75
2021/04/03 11:52:12;;;;;;;0.10;0.10;;;;;;;;;;5069628;28;20207;-71
2021/04/03 11:54:39;;;;;;;0.10;0.10;;;;;;;;;;5067799;28;20263;-73
2021/04/03 11:57:06;;;;;;;0.00;0.00;;;;;;;;;;5068573;28;20236;-73
2021/04/03 11:59:32;;;;;;;0.08;0.08;;;;;;;;;;5068353;28;20237;-73
2021/04/03 12:01:58;;;;;;;0.10;0.10;;;;;;;;;;5069533;28;20633;-73
2021/04/03 12:04:25;;;;;;;0.10;0.10;;;;;;;;;;5068283;28;20645;-73
2021/04/03 12:06:52;;;;;;;0.10;0.10;;;;;;;;;;5068159;28;20268;-73
2021/04/03 12:09:18;;;;;;;0.10;0.10;;;;;;;;;;5069681;28;20175;-72
2021/04/03 12:11:44;;;;;;;0.03;0.03;;;;;;;;;;5068193;28;20169;-72
2021/04/03 12:14:11;;;;;;;0.08;0.08;;;;;;;;;;5068118;28;20204;-73
2021/04/03 12:16:37;;;;;;;0.10;0.10;;;;;;;;;;5062718;28;20192;-73
2021/04/03 12:19:03;;;;;;;1.55;0.73;;;;;;;;;;5049338;28;20532;-71
2021/04/03 12:21:29;;;;;;;0.10;0.10;;;;;;;;;;5058280;28;20239;-72
2021/04/03 12:23:56;;;;;;;0.30;0.30;;;;;;;;;;5060920;28;20220;-73
2021/04/03 12:26:22;;;;;;;0.10;0.10;;;;;;;;;;5069399;28;20188;-72
2021/04/03 12:28:48;;;;;;;0.13;0.13;;;;;;;;;;5041706;28;20166;-72
2021/04/03 12:31:14;;;;;;;0.60;0.60;;;;;;;;;;5033507;28;20174;-73
2021/04/03 12:33:41;;;;;;;0.10;0.10;;;;;;;;;;5028231;28;20240;-72
2021/04/03 12:36:08;;;;;;;0.10;0.10;;;;;;;;;;5029511;28;20645;-73
2021/04/03 12:38:35;;;;;;;0.00;0.00;;;;;;;;;;5029544;28;20170;-74
2021/04/03 12:41:01;;;;;;;0.10;0.10;;;;;;;;;;5029342;28;20240;-74
2021/04/03 12:43:28;;;;;;;1.33;0.52;;;;;;;;;;5027898;28;20194;-74
2021/04/03 12:45:54;;;;;;;0.10;0.10;;;;;;;;;;5028624;28;20154;-74
2021/04/03 12:48:20;;;;;;;0.10;0.10;;;;;;;;;;5027798;28;20170;-74
2021/04/03 12:50:48;;;;;;;0.10;0.10;;;;;;;;;;5044087;28;20227;-74
2021/04/03 12:53:15;;;;;;;0.10;0.10;;;;;;;;;;5049164;28;20197;-74
2021/04/03 12:55:42;;;;;;;0.10;0.10;;;;;;;;;;5049041;28;20166;-74
2021/04/03 12:58:08;;;;;;;0.10;0.10;;;;;;;;;;5049214;28;20231;-74
2021/04/03 13:00:34;;;;;;;0.10;0.10;;;;;;;;;;5048963;28;20189;-74
2021/04/03 13:03:02;;;;;;;0.00;0.00;;;;;;;;;;5049009;28;20233;-74
2021/04/03 13:05:28;;;;;;;0.00;0.00;;;;;;;;;;5047540;28;20188;-74
2021/04/03 13:07:54;;;;;;;0.10;0.10;;;;;;;;;;5048586;28;20162;-74
2021/04/03 13:10:23;;;;;;;0.10;0.10;;;;;;;;;;5050110;28;20228;-74
2021/04/03 13:12:49;;;;;;;0.10;0.10;;;;;;;;;;5054374;28;20245;-74
2021/04/03 13:15:16;;;;;;;0.45;0.43;;;;;;;;;;5054147;28;20193;-74
2021/04/03 13:17:42;;;;;;;0.00;0.00;;;;;;;;;;5086872;28;20175;-74
2021/04/03 13:20:09;;;;;;;0.10;0.10;;;;;;;;;;5095540;28;20223;-74
2021/04/03 13:22:35;;;;;;;0.10;0.10;;;;;;;;;;5077402;28;20232;-74
2021/04/03 13:25:01;;;;;;;0.08;0.08;;;;;;;;;;5077299;28;20195;-74
2021/04/03 13:27:27;;;;;;;0.35;0.35;;;;;;;;;;5077466;28;20170;-73
2021/04/03 13:29:55;;;;;;;0.10;0.10;;;;;;;;;;5077541;28;20160;-73
2021/04/03 13:32:24;;;;;;;5.68;0.35;;;;;;;;;;5095646;28;20686;-71
2021/04/03 13:34:51;;;;;;;0.00;0.00;;;;;;;;;;5077434;28;20195;-73
2021/04/03 13:37:17;;;;;;;0.05;0.05;;;;;;;;;;5077330;28;20168;-73
2021/04/03 13:39:44;;;;;;;0.38;0.38;;;;;;;;;;5095244;28;20164;-73
2021/04/03 13:42:10;;;;;;;0.10;0.10;;;;;;;;;;5095463;28;20200;-73
2021/04/03 13:44:36;;;;;;;0.10;0.10;;;;;;;;;;5095341;28;20187;-73
2021/04/03 13:47:03;;;;;;;0.20;0.20;;;;;;;;;;5077368;28;20190;-73
2021/04/03 13:49:30;;;;;;;0.10;0.10;;;;;;;;;;5077084;28;20211;-73
2021/04/03 13:51:56;;;;;;;0.10;0.10;;;;;;;;;;5095303;28;20175;-74
2021/04/03 13:54:22;;;;;;;0.10;0.10;;;;;;;;;;5077086;28;20260;-74
2021/04/03 13:56:48;;;;;;;0.93;0.75;;;;;;;;;;5094985;28;20174;-73
2021/04/03 13:59:15;;;;;;;0.10;0.10;;;;;;;;;;5077068;28;20187;-73
2021/04/03 14:01:42;;;;;;;0.10;0.10;;;;;;;;;;5094899;28;20208;-74
2021/04/03 14:04:08;;;;;;;0.10;0.10;;;;;;;;;;5076938;28;20215;-73
2021/04/03 14:06:34;;;;;;;0.00;0.00;;;;;;;;;;5095171;28;20167;-73
2021/04/03 14:09:00;;;;;;;1.10;0.45;;;;;;;;;;5095141;28;20171;-73
2021/04/03 14:11:26;;;;;;;0.00;0.00;;;;;;;;;;5095174;28;20172;-73
2021/04/03 14:13:52;;;;;;;0.10;0.10;;;;;;;;;;5095206;28;20191;-73
2021/04/03 14:16:19;;;;;;;0.10;0.10;;;;;;;;;;5077066;28;20191;-73
2021/04/03 14:18:45;;;;;;;0.00;0.00;;;;;;;;;;5076877;28;20217;-73
2021/04/03 14:21:11;;;;;;;0.10;0.10;;;;;;;;;;5075926;28;20202;-73
2021/04/03 14:23:37;;;;;;;0.00;0.00;;;;;;;;;;5090828;28;20191;-73
2021/04/03 14:26:04;;;;;;;0.10;0.10;;;;;;;;;;5091722;28;20613;-72
2021/04/03 14:28:30;;;;;;;0.10;0.10;;;;;;;;;;5091811;28;20294;-73
2021/04/03 14:30:57;;;;;;;0.10;0.10;;;;;;;;;;5073915;28;20514;-73
2021/04/03 14:33:23;;;;;;;0.00;0.00;;;;;;;;;;5073546;28;20204;-73
2021/04/03 14:35:49;;;;;;;0.10;0.10;;;;;;;;;;5091547;28;20168;-73
2021/04/03 14:38:15;;;;;;;0.10;0.10;;;;;;;;;;5091401;28;20156;-73
2021/04/03 14:40:41;;;;;;;0.10;0.10;;;;;;;;;;5091399;28;20191;-73
2021/04/03 14:43:08;;;;;;;0.47;0.47;;;;;;;;;;5091178;28;20637;-73
2021/04/03 14:45:34;;;;;;;0.00;0.00;;;;;;;;;;5073423;28;20190;-73